sensor_id;sensor_type;location;lat;lon;timestamp;P1;durP1;ratioP1;P2;durP2;ratioP2
75768;SDS011;64379;48.888;8.330;2023-01-13T00:02:08;3.92;;;0.80;;
75768;SDS011;64379;48.888;8.330;2023-01-13T00:04:34;2.58;;;0.60;;
75768;SDS011;64379;48.888;8.330;2023-01-13T00:07:00;3.08;;;0.50;;
75768;SDS011;64379;48.888;8.330;2023-01-13T00:09:25;2.20;;;0.70;;
75768;SDS011;64379;48.888;8.330;2023-01-13T00:11:51;4.22;;;0.70;;
75768;SDS011;64379;48.888;8.330;2023-01-13T00:14:16;3.67;;;1.00;;
75768;SDS011;64379;48.888;8.330;2023-01-13T00:16:42;3.67;;;0.70;;
75768;SDS011;64379;48.888;8.330;2023-01-13T00:19:08;4.25;;;0.63;;
75768;SDS011;64379;48.888;8.330;2023-01-13T00:21:33;3.10;;;0.70;;
75768;SDS011;64379;48.888;8.330;2023-01-13T00:24:00;2.33;;;0.60;;
75768;SDS011;64379;48.888;8.330;2023-01-13T00:26:26;2.35;;;0.80;;
75768;SDS011;64379;48.888;8.330;2023-01-13T00:28:57;2.55;;;0.80;;
75768;SDS011;64379;48.888;8.330;2023-01-13T00:31:23;2.53;;;0.77;;
75768;SDS011;64379;48.888;8.330;2023-01-13T00:33:49;1.38;;;0.50;;
75768;SDS011;64379;48.888;8.330;2023-01-13T00:36:16;0.98;;;0.35;;
75768;SDS011;64379;48.888;8.330;2023-01-13T00:38:43;0.85;;;0.40;;
75768;SDS011;64379;48.888;8.330;2023-01-13T00:41:10;2.80;;;0.70;;
75768;SDS011;64379;48.888;8.330;2023-01-13T00:43:36;2.63;;;0.70;;
75768;SDS011;64379;48.888;8.330;2023-01-13T00:46:03;2.47;;;0.70;;
75768;SDS011;64379;48.888;8.330;2023-01-13T00:48:30;2.75;;;0.60;;
75768;SDS011;64379;48.888;8.330;2023-01-13T00:50:57;2.55;;;0.43;;
75768;SDS011;64379;48.888;8.330;2023-01-13T00:53:29;2.38;;;0.60;;
75768;SDS011;64379;48.888;8.330;2023-01-13T00:55:59;4.45;;;0.80;;
75768;SDS011;64379;48.888;8.330;2023-01-13T00:58:26;2.17;;;0.50;;
75768;SDS011;64379;48.888;8.330;2023-01-13T01:00:52;3.83;;;0.35;;
75768;SDS011;64379;48.888;8.330;2023-01-13T01:03:18;3.17;;;0.70;;
75768;SDS011;64379;48.888;8.330;2023-01-13T01:05:43;2.40;;;0.70;;
75768;SDS011;64379;48.888;8.330;2023-01-13T01:08:09;2.63;;;0.77;;
75768;SDS011;64379;48.888;8.330;2023-01-13T01:10:35;3.47;;;0.93;;
75768;SDS011;64379;48.888;8.330;2023-01-13T01:13:00;3.15;;;0.68;;
75768;SDS011;64379;48.888;8.330;2023-01-13T01:15:26;3.08;;;0.63;;
75768;SDS011;64379;48.888;8.330;2023-01-13T01:17:51;2.33;;;0.57;;
75768;SDS011;64379;48.888;8.330;2023-01-13T01:20:17;3.28;;;0.50;;
75768;SDS011;64379;48.888;8.330;2023-01-13T01:22:42;0.70;;;0.45;;
75768;SDS011;64379;48.888;8.330;2023-01-13T01:25:08;3.47;;;0.73;;
75768;SDS011;64379;48.888;8.330;2023-01-13T01:27:34;2.92;;;0.80;;
75768;SDS011;64379;48.888;8.330;2023-01-13T01:30:00;2.92;;;0.73;;
75768;SDS011;64379;48.888;8.330;2023-01-13T01:32:25;2.80;;;0.40;;
75768;SDS011;64379;48.888;8.330;2023-01-13T01:34:51;2.95;;;0.60;;
75768;SDS011;64379;48.888;8.330;2023-01-13T01:37:16;2.97;;;0.75;;
75768;SDS011;64379;48.888;8.330;2023-01-13T01:39:42;2.10;;;0.40;;
75768;SDS011;64379;48.888;8.330;2023-01-13T01:42:12;2.35;;;0.70;;
75768;SDS011;64379;48.888;8.330;2023-01-13T01:44:59;5.63;;;0.80;;
75768;SDS011;64379;48.888;8.330;2023-01-13T01:47:34;3.13;;;0.75;;
75768;SDS011;64379;48.888;8.330;2023-01-13T01:50:00;3.45;;;0.75;;
75768;SDS011;64379;48.888;8.330;2023-01-13T01:52:29;3.80;;;0.90;;
75768;SDS011;64379;48.888;8.330;2023-01-13T01:55:00;3.60;;;0.75;;
75768;SDS011;64379;48.888;8.330;2023-01-13T01:57:43;2.63;;;0.63;;
75768;SDS011;64379;48.888;8.330;2023-01-13T02:00:13;3.47;;;0.65;;
75768;SDS011;64379;48.888;8.330;2023-01-13T02:02:39;1.33;;;0.47;;
75768;SDS011;64379;48.888;8.330;2023-01-13T02:05:07;4.03;;;1.10;;
75768;SDS011;64379;48.888;8.330;2023-01-13T02:07:33;3.45;;;0.93;;
75768;SDS011;64379;48.888;8.330;2023-01-13T02:10:02;4.65;;;0.90;;
75768;SDS011;64379;48.888;8.330;2023-01-13T02:12:32;2.55;;;0.60;;
75768;SDS011;64379;48.888;8.330;2023-01-13T02:15:03;2.50;;;0.50;;
75768;SDS011;64379;48.888;8.330;2023-01-13T02:17:34;4.13;;;0.90;;
75768;SDS011;64379;48.888;8.330;2023-01-13T02:22:54;1.88;;;0.52;;
75768;SDS011;64379;48.888;8.330;2023-01-13T02:31:24;2.38;;;0.95;;
75768;SDS011;64379;48.888;8.330;2023-01-13T02:34:21;2.05;;;0.60;;
75768;SDS011;64379;48.888;8.330;2023-01-13T02:37:06;2.00;;;0.63;;
75768;SDS011;64379;48.888;8.330;2023-01-13T02:40:22;1.90;;;0.60;;
75768;SDS011;64379;48.888;8.330;2023-01-13T02:43:03;2.35;;;0.57;;
75768;SDS011;64379;48.888;8.330;2023-01-13T02:45:54;5.45;;;0.90;;
75768;SDS011;64379;48.888;8.330;2023-01-13T02:48:34;2.35;;;0.90;;
75768;SDS011;64379;48.888;8.330;2023-01-13T02:51:03;5.57;;;1.00;;
75768;SDS011;64379;48.888;8.330;2023-01-13T02:56:15;3.25;;;0.60;;
75768;SDS011;64379;48.888;8.330;2023-01-13T02:58:55;2.22;;;0.57;;
75768;SDS011;64379;48.888;8.330;2023-01-13T03:01:23;1.60;;;0.40;;
75768;SDS011;64379;48.888;8.330;2023-01-13T03:03:48;2.15;;;0.68;;
75768;SDS011;64379;48.888;8.330;2023-01-13T03:09:21;4.57;;;0.77;;
75768;SDS011;64379;48.888;8.330;2023-01-13T03:14:41;1.48;;;0.50;;
75768;SDS011;64379;48.888;8.330;2023-01-13T03:20:05;2.15;;;0.68;;
75768;SDS011;64379;48.888;8.330;2023-01-13T03:22:38;3.80;;;0.93;;
75768;SDS011;64379;48.888;8.330;2023-01-13T03:25:31;2.65;;;0.73;;
75768;SDS011;64379;48.888;8.330;2023-01-13T03:28:02;2.20;;;0.50;;
75768;SDS011;64379;48.888;8.330;2023-01-13T03:36:07;2.17;;;0.57;;
75768;SDS011;64379;48.888;8.330;2023-01-13T03:38:36;1.85;;;0.70;;
75768;SDS011;64379;48.888;8.330;2023-01-13T03:41:28;2.28;;;0.70;;
75768;SDS011;64379;48.888;8.330;2023-01-13T03:44:14;1.15;;;0.40;;
75768;SDS011;64379;48.888;8.330;2023-01-13T03:49:22;3.65;;;0.80;;
75768;SDS011;64379;48.888;8.330;2023-01-13T03:52:09;2.00;;;0.60;;
75768;SDS011;64379;48.888;8.330;2023-01-13T03:54:43;2.45;;;0.70;;
75768;SDS011;64379;48.888;8.330;2023-01-13T03:57:22;1.27;;;0.35;;
75768;SDS011;64379;48.888;8.330;2023-01-13T03:59:54;1.92;;;0.60;;
75768;SDS011;64379;48.888;8.330;2023-01-13T04:02:33;2.00;;;0.50;;
75768;SDS011;64379;48.888;8.330;2023-01-13T04:05:06;2.20;;;0.40;;
75768;SDS011;64379;48.888;8.330;2023-01-13T04:07:38;3.17;;;0.73;;
75768;SDS011;64379;48.888;8.330;2023-01-13T04:10:30;1.63;;;0.38;;
75768;SDS011;64379;48.888;8.330;2023-01-13T04:13:07;1.05;;;0.30;;
75768;SDS011;64379;48.888;8.330;2023-01-13T04:15:38;3.95;;;0.80;;
75768;SDS011;64379;48.888;8.330;2023-01-13T04:18:16;1.30;;;0.30;;
75768;SDS011;64379;48.888;8.330;2023-01-13T04:20:46;0.77;;;0.28;;
75768;SDS011;64379;48.888;8.330;2023-01-13T04:23:13;1.52;;;0.30;;
75768;SDS011;64379;48.888;8.330;2023-01-13T04:25:40;2.22;;;0.57;;
75768;SDS011;64379;48.888;8.330;2023-01-13T04:28:06;2.60;;;0.55;;
75768;SDS011;64379;48.888;8.330;2023-01-13T04:30:33;1.30;;;0.43;;
75768;SDS011;64379;48.888;8.330;2023-01-13T04:32:58;1.83;;;0.50;;
75768;SDS011;64379;48.888;8.330;2023-01-13T04:35:24;2.75;;;0.32;;
75768;SDS011;64379;48.888;8.330;2023-01-13T04:37:50;3.17;;;0.70;;
75768;SDS011;64379;48.888;8.330;2023-01-13T04:40:15;1.38;;;0.28;;
75768;SDS011;64379;48.888;8.330;2023-01-13T04:42:44;1.60;;;0.50;;
75768;SDS011;64379;48.888;8.330;2023-01-13T04:47:36;1.70;;;0.43;;
75768;SDS011;64379;48.888;8.330;2023-01-13T04:50:01;2.17;;;0.38;;
75768;SDS011;64379;48.888;8.330;2023-01-13T04:52:27;1.65;;;0.43;;
75768;SDS011;64379;48.888;8.330;2023-01-13T04:54:53;1.85;;;0.30;;
75768;SDS011;64379;48.888;8.330;2023-01-13T04:57:18;1.40;;;0.43;;
75768;SDS011;64379;48.888;8.330;2023-01-13T04:59:45;4.25;;;0.32;;
75768;SDS011;64379;48.888;8.330;2023-01-13T05:02:11;1.80;;;0.50;;
75768;SDS011;64379;48.888;8.330;2023-01-13T05:04:43;0.95;;;0.40;;
75768;SDS011;64379;48.888;8.330;2023-01-13T05:07:10;0.60;;;0.30;;
75768;SDS011;64379;48.888;8.330;2023-01-13T05:09:35;0.77;;;0.20;;
75768;SDS011;64379;48.888;8.330;2023-01-13T05:12:01;1.48;;;0.20;;
75768;SDS011;64379;48.888;8.330;2023-01-13T05:14:45;0.40;;;0.20;;
75768;SDS011;64379;48.888;8.330;2023-01-13T05:17:29;0.68;;;0.20;;
75768;SDS011;64379;48.888;8.330;2023-01-13T05:19:56;0.52;;;0.20;;
75768;SDS011;64379;48.888;8.330;2023-01-13T05:22:21;2.30;;;0.30;;
75768;SDS011;64379;48.888;8.330;2023-01-13T05:25:07;0.75;;;0.30;;
75768;SDS011;64379;48.888;8.330;2023-01-13T05:27:45;0.85;;;0.45;;
75768;SDS011;64379;48.888;8.330;2023-01-13T05:30:11;1.27;;;0.17;;
75768;SDS011;64379;48.888;8.330;2023-01-13T05:32:37;1.55;;;0.30;;
75768;SDS011;64379;48.888;8.330;2023-01-13T05:35:03;0.73;;;0.20;;
75768;SDS011;64379;48.888;8.330;2023-01-13T05:37:29;0.32;;;0.20;;
75768;SDS011;64379;48.888;8.330;2023-01-13T05:39:55;1.70;;;0.50;;
75768;SDS011;64379;48.888;8.330;2023-01-13T05:42:39;2.30;;;0.43;;
75768;SDS011;64379;48.888;8.330;2023-01-13T05:45:24;1.70;;;0.40;;
75768;SDS011;64379;48.888;8.330;2023-01-13T05:47:49;3.30;;;0.43;;
75768;SDS011;64379;48.888;8.330;2023-01-13T05:50:15;1.77;;;0.45;;
75768;SDS011;64379;48.888;8.330;2023-01-13T05:52:41;0.38;;;0.20;;
75768;SDS011;64379;48.888;8.330;2023-01-13T05:55:07;0.77;;;0.25;;
75768;SDS011;64379;48.888;8.330;2023-01-13T05:57:33;1.80;;;0.60;;
75768;SDS011;64379;48.888;8.330;2023-01-13T05:59:59;1.55;;;0.40;;
75768;SDS011;64379;48.888;8.330;2023-01-13T06:02:25;2.47;;;0.30;;
75768;SDS011;64379;48.888;8.330;2023-01-13T06:04:50;1.15;;;0.40;;
75768;SDS011;64379;48.888;8.330;2023-01-13T06:07:16;0.95;;;0.40;;
75768;SDS011;64379;48.888;8.330;2023-01-13T06:09:42;0.85;;;0.40;;
75768;SDS011;64379;48.888;8.330;2023-01-13T06:12:11;0.60;;;0.32;;
75768;SDS011;64379;48.888;8.330;2023-01-13T06:14:37;2.28;;;0.30;;
75768;SDS011;64379;48.888;8.330;2023-01-13T06:17:10;2.58;;;0.38;;
75768;SDS011;64379;48.888;8.330;2023-01-13T06:19:37;0.85;;;0.40;;
75768;SDS011;64379;48.888;8.330;2023-01-13T06:24:41;1.70;;;0.47;;
75768;SDS011;64379;48.888;8.330;2023-01-13T06:27:09;1.25;;;0.52;;
75768;SDS011;64379;48.888;8.330;2023-01-13T06:29:35;0.80;;;0.20;;
75768;SDS011;64379;48.888;8.330;2023-01-13T06:32:02;1.58;;;0.25;;
75768;SDS011;64379;48.888;8.330;2023-01-13T06:34:32;1.15;;;0.25;;
75768;SDS011;64379;48.888;8.330;2023-01-13T06:36:59;1.50;;;0.32;;
75768;SDS011;64379;48.888;8.330;2023-01-13T06:39:27;1.75;;;0.55;;
75768;SDS011;64379;48.888;8.330;2023-01-13T06:41:55;1.35;;;0.40;;
75768;SDS011;64379;48.888;8.330;2023-01-13T06:44:41;0.35;;;0.20;;
75768;SDS011;64379;48.888;8.330;2023-01-13T06:47:08;3.22;;;0.35;;
75768;SDS011;64379;48.888;8.330;2023-01-13T06:49:33;0.32;;;0.28;;
75768;SDS011;64379;48.888;8.330;2023-01-13T06:51:59;2.17;;;0.35;;
75768;SDS011;64379;48.888;8.330;2023-01-13T06:54:25;1.08;;;0.40;;
75768;SDS011;64379;48.888;8.330;2023-01-13T06:56:50;0.55;;;0.20;;
75768;SDS011;64379;48.888;8.330;2023-01-13T06:59:16;0.80;;;0.43;;
75768;SDS011;64379;48.888;8.330;2023-01-13T07:01:42;1.30;;;0.40;;
75768;SDS011;64379;48.888;8.330;2023-01-13T07:04:07;1.65;;;0.40;;
75768;SDS011;64379;48.888;8.330;2023-01-13T07:06:33;0.65;;;0.40;;
75768;SDS011;64379;48.888;8.330;2023-01-13T07:08:58;0.80;;;0.30;;
75768;SDS011;64379;48.888;8.330;2023-01-13T07:11:24;0.43;;;0.20;;
75768;SDS011;64379;48.888;8.330;2023-01-13T07:13:50;1.30;;;0.30;;
75768;SDS011;64379;48.888;8.330;2023-01-13T07:16:34;0.40;;;0.40;;
75768;SDS011;64379;48.888;8.330;2023-01-13T07:18:59;0.75;;;0.35;;
75768;SDS011;64379;48.888;8.330;2023-01-13T07:21:25;1.13;;;0.40;;
75768;SDS011;64379;48.888;8.330;2023-01-13T07:23:50;0.70;;;0.25;;
75768;SDS011;64379;48.888;8.330;2023-01-13T07:26:16;1.35;;;0.40;;
75768;SDS011;64379;48.888;8.330;2023-01-13T07:28:42;0.82;;;0.50;;
75768;SDS011;64379;48.888;8.330;2023-01-13T07:31:14;0.45;;;0.40;;
75768;SDS011;64379;48.888;8.330;2023-01-13T07:33:42;1.98;;;0.38;;
75768;SDS011;64379;48.888;8.330;2023-01-13T07:36:08;0.40;;;0.30;;
75768;SDS011;64379;48.888;8.330;2023-01-13T07:38:34;0.52;;;0.30;;
75768;SDS011;64379;48.888;8.330;2023-01-13T07:41:00;1.45;;;0.50;;
75768;SDS011;64379;48.888;8.330;2023-01-13T07:43:46;1.25;;;0.40;;
75768;SDS011;64379;48.888;8.330;2023-01-13T07:46:12;0.88;;;0.45;;
75768;SDS011;64379;48.888;8.330;2023-01-13T07:48:37;2.60;;;0.30;;
75768;SDS011;64379;48.888;8.330;2023-01-13T07:51:05;2.45;;;0.40;;
75768;SDS011;64379;48.888;8.330;2023-01-13T07:53:32;2.83;;;0.55;;
75768;SDS011;64379;48.888;8.330;2023-01-13T07:55:58;3.85;;;0.80;;
75768;SDS011;64379;48.888;8.330;2023-01-13T07:58:25;3.25;;;0.80;;
75768;SDS011;64379;48.888;8.330;2023-01-13T08:00:52;2.63;;;0.80;;
75768;SDS011;64379;48.888;8.330;2023-01-13T08:03:18;3.97;;;0.80;;
75768;SDS011;64379;48.888;8.330;2023-01-13T08:05:45;1.90;;;0.80;;
75768;SDS011;64379;48.888;8.330;2023-01-13T08:08:11;1.77;;;0.68;;
75768;SDS011;64379;48.888;8.330;2023-01-13T08:10:37;1.38;;;0.47;;
75768;SDS011;64379;48.888;8.330;2023-01-13T08:13:09;2.65;;;0.68;;
75768;SDS011;64379;48.888;8.330;2023-01-13T08:15:44;3.17;;;0.70;;
75768;SDS011;64379;48.888;8.330;2023-01-13T08:18:18;4.55;;;0.50;;
75768;SDS011;64379;48.888;8.330;2023-01-13T08:20:49;1.40;;;0.50;;
75768;SDS011;64379;48.888;8.330;2023-01-13T08:23:25;2.08;;;0.73;;
75768;SDS011;64379;48.888;8.330;2023-01-13T08:25:51;0.70;;;0.30;;
75768;SDS011;64379;48.888;8.330;2023-01-13T08:28:28;2.15;;;0.60;;
75768;SDS011;64379;48.888;8.330;2023-01-13T08:38:28;3.83;;;0.77;;
75768;SDS011;64379;48.888;8.330;2023-01-13T09:02:44;4.13;;;0.88;;
75768;SDS011;64379;48.888;8.330;2023-01-13T09:08:58;1.60;;;0.60;;
75768;SDS011;64379;48.888;8.330;2023-01-13T09:15:53;2.42;;;0.77;;
75768;SDS011;64379;48.888;8.330;2023-01-13T09:18:20;4.82;;;1.10;;
75768;SDS011;64379;48.888;8.330;2023-01-13T09:20:52;4.25;;;0.93;;
75768;SDS011;64379;48.888;8.330;2023-01-13T09:23:32;2.13;;;0.70;;
75768;SDS011;64379;48.888;8.330;2023-01-13T09:26:27;3.45;;;0.68;;
75768;SDS011;64379;48.888;8.330;2023-01-13T09:29:08;5.18;;;0.63;;
75768;SDS011;64379;48.888;8.330;2023-01-13T09:32:28;1.13;;;0.40;;
75768;SDS011;64379;48.888;8.330;2023-01-13T09:35:43;3.42;;;0.70;;
75768;SDS011;64379;48.888;8.330;2023-01-13T09:38:13;4.55;;;0.70;;
75768;SDS011;64379;48.888;8.330;2023-01-13T09:51:36;4.00;;;0.90;;
75768;SDS011;64379;48.888;8.330;2023-01-13T09:58:55;2.75;;;0.60;;
75768;SDS011;64379;48.888;8.330;2023-01-13T10:11:39;4.20;;;0.73;;
75768;SDS011;64379;48.888;8.330;2023-01-13T10:14:48;4.15;;;0.95;;
75768;SDS011;64379;48.888;8.330;2023-01-13T10:20:28;3.20;;;0.85;;
75768;SDS011;64379;48.888;8.330;2023-01-13T10:26:00;2.35;;;0.80;;
75768;SDS011;64379;48.888;8.330;2023-01-13T10:28:52;3.08;;;0.90;;
75768;SDS011;64379;48.888;8.330;2023-01-13T10:31:18;4.15;;;0.95;;
75768;SDS011;64379;48.888;8.330;2023-01-13T10:33:46;3.70;;;0.90;;
75768;SDS011;64379;48.888;8.330;2023-01-13T10:36:16;7.30;;;1.33;;
75768;SDS011;64379;48.888;8.330;2023-01-13T10:38:46;3.03;;;0.80;;
75768;SDS011;64379;48.888;8.330;2023-01-13T10:43:40;2.42;;;1.00;;
75768;SDS011;64379;48.888;8.330;2023-01-13T10:46:25;4.70;;;0.77;;
75768;SDS011;64379;48.888;8.330;2023-01-13T10:48:55;2.97;;;1.05;;
75768;SDS011;64379;48.888;8.330;2023-01-13T10:56:38;3.20;;;0.93;;
75768;SDS011;64379;48.888;8.330;2023-01-13T10:59:08;3.58;;;0.95;;
75768;SDS011;64379;48.888;8.330;2023-01-13T11:02:30;5.28;;;0.90;;
75768;SDS011;64379;48.888;8.330;2023-01-13T11:04:59;6.28;;;1.10;;
75768;SDS011;64379;48.888;8.330;2023-01-13T11:07:34;5.60;;;1.10;;
75768;SDS011;64379;48.888;8.330;2023-01-13T11:27:38;1.83;;;0.65;;
75768;SDS011;64379;48.888;8.330;2023-01-13T11:33:09;4.13;;;0.80;;
75768;SDS011;64379;48.888;8.330;2023-01-13T11:38:36;6.65;;;0.80;;
75768;SDS011;64379;48.888;8.330;2023-01-13T11:41:24;3.55;;;0.70;;
75768;SDS011;64379;48.888;8.330;2023-01-13T11:47:24;4.32;;;0.90;;
75768;SDS011;64379;48.888;8.330;2023-01-13T11:49:51;2.03;;;0.63;;
75768;SDS011;64379;48.888;8.330;2023-01-13T11:52:21;3.15;;;0.80;;
75768;SDS011;64379;48.888;8.330;2023-01-13T12:00:35;2.05;;;0.63;;
75768;SDS011;64379;48.888;8.330;2023-01-13T12:03:19;4.25;;;0.80;;
75768;SDS011;64379;48.888;8.330;2023-01-13T12:08:50;6.60;;;1.05;;
75768;SDS011;64379;48.888;8.330;2023-01-13T12:14:56;7.63;;;1.15;;
75768;SDS011;64379;48.888;8.330;2023-01-13T12:20:49;12.63;;;2.05;;
75768;SDS011;64379;48.888;8.330;2023-01-13T12:23:34;5.97;;;1.58;;
75768;SDS011;64379;48.888;8.330;2023-01-13T12:26:10;7.28;;;1.52;;
75768;SDS011;64379;48.888;8.330;2023-01-13T12:28:41;8.32;;;1.45;;
75768;SDS011;64379;48.888;8.330;2023-01-13T12:31:16;7.38;;;1.40;;
75768;SDS011;64379;48.888;8.330;2023-01-13T12:36:33;4.85;;;1.05;;
75768;SDS011;64379;48.888;8.330;2023-01-13T12:47:43;9.32;;;1.00;;
75768;SDS011;64379;48.888;8.330;2023-01-13T12:52:49;6.40;;;0.90;;
75768;SDS011;64379;48.888;8.330;2023-01-13T12:55:25;6.97;;;1.40;;
75768;SDS011;64379;48.888;8.330;2023-01-13T13:00:36;6.50;;;1.40;;
75768;SDS011;64379;48.888;8.330;2023-01-13T13:03:28;12.35;;;1.85;;
75768;SDS011;64379;48.888;8.330;2023-01-13T13:06:04;4.53;;;1.05;;
75768;SDS011;64379;48.888;8.330;2023-01-13T13:13:56;5.57;;;1.00;;
75768;SDS011;64379;48.888;8.330;2023-01-13T13:18:51;7.20;;;1.02;;
75768;SDS011;64379;48.888;8.330;2023-01-13T13:21:26;7.55;;;1.23;;
75768;SDS011;64379;48.888;8.330;2023-01-13T13:24:30;7.72;;;1.00;;
75768;SDS011;64379;48.888;8.330;2023-01-13T13:26:56;6.28;;;1.08;;
75768;SDS011;64379;48.888;8.330;2023-01-13T13:29:42;9.88;;;1.20;;
75768;SDS011;64379;48.888;8.330;2023-01-13T13:32:22;4.72;;;0.93;;
75768;SDS011;64379;48.888;8.330;2023-01-13T13:40:47;4.05;;;1.00;;
75768;SDS011;64379;48.888;8.330;2023-01-13T13:43:36;4.05;;;0.95;;
75768;SDS011;64379;48.888;8.330;2023-01-13T13:46:30;4.22;;;0.70;;
75768;SDS011;64379;48.888;8.330;2023-01-13T13:49:20;5.60;;;1.20;;
75768;SDS011;64379;48.888;8.330;2023-01-13T13:52:08;5.22;;;0.90;;
75768;SDS011;64379;48.888;8.330;2023-01-13T13:54:37;3.17;;;0.35;;
75768;SDS011;64379;48.888;8.330;2023-01-13T13:57:21;3.63;;;0.82;;
75768;SDS011;64379;48.888;8.330;2023-01-13T13:59:57;2.88;;;0.77;;
75768;SDS011;64379;48.888;8.330;2023-01-13T14:02:28;8.55;;;1.23;;
75768;SDS011;64379;48.888;8.330;2023-01-13T14:05:05;5.60;;;0.98;;
75768;SDS011;64379;48.888;8.330;2023-01-13T14:07:49;4.68;;;0.85;;
75768;SDS011;64379;48.888;8.330;2023-01-13T14:10:19;1.88;;;0.57;;
75768;SDS011;64379;48.888;8.330;2023-01-13T14:12:47;6.05;;;0.77;;
75768;SDS011;64379;48.888;8.330;2023-01-13T14:15:23;4.93;;;1.00;;
75768;SDS011;64379;48.888;8.330;2023-01-13T14:17:57;1.23;;;0.40;;
75768;SDS011;64379;48.888;8.330;2023-01-13T14:20:27;2.08;;;0.60;;
75768;SDS011;64379;48.888;8.330;2023-01-13T14:22:54;7.65;;;0.88;;
75768;SDS011;64379;48.888;8.330;2023-01-13T14:27:59;1.77;;;0.50;;
75768;SDS011;64379;48.888;8.330;2023-01-13T14:30:32;5.57;;;0.80;;
75768;SDS011;64379;48.888;8.330;2023-01-13T14:32:58;5.90;;;1.00;;
75768;SDS011;64379;48.888;8.330;2023-01-13T14:35:24;6.55;;;0.90;;
75768;SDS011;64379;48.888;8.330;2023-01-13T14:37:50;6.22;;;1.30;;
75768;SDS011;64379;48.888;8.330;2023-01-13T14:40:37;4.18;;;0.90;;
75768;SDS011;64379;48.888;8.330;2023-01-13T14:43:15;3.25;;;0.73;;
75768;SDS011;64379;48.888;8.330;2023-01-13T14:45:56;5.20;;;1.20;;
75768;SDS011;64379;48.888;8.330;2023-01-13T14:48:29;6.22;;;1.13;;
75768;SDS011;64379;48.888;8.330;2023-01-13T14:50:59;6.22;;;0.90;;
75768;SDS011;64379;48.888;8.330;2023-01-13T14:53:37;5.20;;;1.20;;
75768;SDS011;64379;48.888;8.330;2023-01-13T15:04:57;3.58;;;0.70;;
75768;SDS011;64379;48.888;8.330;2023-01-13T15:10:30;6.68;;;1.05;;
75768;SDS011;64379;48.888;8.330;2023-01-13T15:13:02;5.80;;;1.45;;
75768;SDS011;64379;48.888;8.330;2023-01-13T15:15:30;9.65;;;1.20;;
75768;SDS011;64379;48.888;8.330;2023-01-13T15:18:04;4.88;;;1.20;;
75768;SDS011;64379;48.888;8.330;2023-01-13T15:20:39;6.65;;;1.20;;
75768;SDS011;64379;48.888;8.330;2023-01-13T15:23:05;4.95;;;1.20;;
75768;SDS011;64379;48.888;8.330;2023-01-13T15:25:31;6.43;;;1.15;;
75768;SDS011;64379;48.888;8.330;2023-01-13T15:27:58;7.72;;;1.33;;
75768;SDS011;64379;48.888;8.330;2023-01-13T15:30:25;6.60;;;1.30;;
75768;SDS011;64379;48.888;8.330;2023-01-13T15:32:52;5.97;;;1.10;;
75768;SDS011;64379;48.888;8.330;2023-01-13T15:35:19;6.75;;;1.20;;
75768;SDS011;64379;48.888;8.330;2023-01-13T15:37:45;5.63;;;1.38;;
75768;SDS011;64379;48.888;8.330;2023-01-13T15:40:13;6.70;;;1.13;;
75768;SDS011;64379;48.888;8.330;2023-01-13T15:42:46;8.15;;;1.40;;
75768;SDS011;64379;48.888;8.330;2023-01-13T15:45:31;5.40;;;1.17;;
75768;SDS011;64379;48.888;8.330;2023-01-13T15:48:16;5.47;;;1.30;;
75768;SDS011;64379;48.888;8.330;2023-01-13T15:50:44;6.50;;;1.73;;
75768;SDS011;64379;48.888;8.330;2023-01-13T15:53:11;5.40;;;1.20;;
75768;SDS011;64379;48.888;8.330;2023-01-13T15:55:38;5.78;;;1.00;;
75768;SDS011;64379;48.888;8.330;2023-01-13T15:58:06;2.88;;;0.88;;
75768;SDS011;64379;48.888;8.330;2023-01-13T16:00:37;4.68;;;0.80;;
75768;SDS011;64379;48.888;8.330;2023-01-13T16:03:04;4.38;;;0.98;;
75768;SDS011;64379;48.888;8.330;2023-01-13T16:05:29;8.27;;;1.17;;
75768;SDS011;64379;48.888;8.330;2023-01-13T16:07:55;7.85;;;1.20;;
75768;SDS011;64379;48.888;8.330;2023-01-13T16:10:22;7.38;;;1.10;;
75768;SDS011;64379;48.888;8.330;2023-01-13T16:12:51;4.80;;;1.02;;
75768;SDS011;64379;48.888;8.330;2023-01-13T16:15:18;5.22;;;1.00;;
75768;SDS011;64379;48.888;8.330;2023-01-13T16:17:46;3.60;;;0.90;;
75768;SDS011;64379;48.888;8.330;2023-01-13T16:20:18;4.53;;;1.17;;
75768;SDS011;64379;48.888;8.330;2023-01-13T16:22:44;2.30;;;0.98;;
75768;SDS011;64379;48.888;8.330;2023-01-13T16:25:14;7.55;;;1.20;;
75768;SDS011;64379;48.888;8.330;2023-01-13T16:27:44;5.18;;;1.10;;
75768;SDS011;64379;48.888;8.330;2023-01-13T16:30:18;8.15;;;1.38;;
75768;SDS011;64379;48.888;8.330;2023-01-13T16:32:52;6.90;;;0.98;;
75768;SDS011;64379;48.888;8.330;2023-01-13T16:35:22;4.55;;;1.10;;
75768;SDS011;64379;48.888;8.330;2023-01-13T16:37:49;8.70;;;1.50;;
75768;SDS011;64379;48.888;8.330;2023-01-13T16:42:53;5.30;;;0.98;;
75768;SDS011;64379;48.888;8.330;2023-01-13T16:45:20;4.32;;;0.93;;
75768;SDS011;64379;48.888;8.330;2023-01-13T16:47:45;9.18;;;1.15;;
75768;SDS011;64379;48.888;8.330;2023-01-13T16:53:05;7.20;;;1.27;;
75768;SDS011;64379;48.888;8.330;2023-01-13T16:55:37;6.93;;;1.42;;
75768;SDS011;64379;48.888;8.330;2023-01-13T16:58:04;8.23;;;1.27;;
75768;SDS011;64379;48.888;8.330;2023-01-13T17:00:30;6.80;;;1.17;;
75768;SDS011;64379;48.888;8.330;2023-01-13T17:02:56;5.00;;;1.17;;
75768;SDS011;64379;48.888;8.330;2023-01-13T17:05:26;4.30;;;0.93;;
75768;SDS011;64379;48.888;8.330;2023-01-13T17:07:52;5.38;;;0.98;;
75768;SDS011;64379;48.888;8.330;2023-01-13T17:10:22;7.05;;;1.10;;
75768;SDS011;64379;48.888;8.330;2023-01-13T17:12:49;4.05;;;1.20;;
75768;SDS011;64379;48.888;8.330;2023-01-13T17:15:15;4.07;;;1.20;;
75768;SDS011;64379;48.888;8.330;2023-01-13T17:17:45;5.13;;;1.08;;
75768;SDS011;64379;48.888;8.330;2023-01-13T17:20:13;6.78;;;1.40;;
75768;SDS011;64379;48.888;8.330;2023-01-13T17:22:39;5.78;;;1.25;;
75768;SDS011;64379;48.888;8.330;2023-01-13T17:25:05;3.83;;;0.98;;
75768;SDS011;64379;48.888;8.330;2023-01-13T17:27:32;3.15;;;0.95;;
75768;SDS011;64379;48.888;8.330;2023-01-13T17:29:58;4.15;;;0.93;;
75768;SDS011;64379;48.888;8.330;2023-01-13T17:32:24;3.90;;;1.30;;
75768;SDS011;64379;48.888;8.330;2023-01-13T17:34:50;7.40;;;1.33;;
75768;SDS011;64379;48.888;8.330;2023-01-13T17:37:17;3.30;;;0.90;;
75768;SDS011;64379;48.888;8.330;2023-01-13T17:39:43;7.43;;;1.25;;
75768;SDS011;64379;48.888;8.330;2023-01-13T17:42:10;6.45;;;1.13;;
75768;SDS011;64379;48.888;8.330;2023-01-13T17:44:36;2.22;;;0.63;;
75768;SDS011;64379;48.888;8.330;2023-01-13T17:47:02;5.25;;;1.25;;
75768;SDS011;64379;48.888;8.330;2023-01-13T17:49:28;4.53;;;1.10;;
75768;SDS011;64379;48.888;8.330;2023-01-13T17:51:53;3.65;;;0.60;;
75768;SDS011;64379;48.888;8.330;2023-01-13T17:54:19;3.85;;;0.70;;
75768;SDS011;64379;48.888;8.330;2023-01-13T17:56:45;4.13;;;1.02;;
75768;SDS011;64379;48.888;8.330;2023-01-13T17:59:11;2.83;;;0.70;;
75768;SDS011;64379;48.888;8.330;2023-01-13T18:01:38;4.13;;;0.98;;
75768;SDS011;64379;48.888;8.330;2023-01-13T18:04:05;3.45;;;0.90;;
75768;SDS011;64379;48.888;8.330;2023-01-13T18:06:32;3.72;;;0.95;;
75768;SDS011;64379;48.888;8.330;2023-01-13T18:08:58;4.95;;;0.90;;
75768;SDS011;64379;48.888;8.330;2023-01-13T18:11:26;3.38;;;1.08;;
75768;SDS011;64379;48.888;8.330;2023-01-13T18:13:52;3.33;;;0.65;;
75768;SDS011;64379;48.888;8.330;2023-01-13T18:16:20;6.38;;;1.05;;
75768;SDS011;64379;48.888;8.330;2023-01-13T18:18:47;6.20;;;1.10;;
75768;SDS011;64379;48.888;8.330;2023-01-13T18:21:24;5.97;;;1.20;;
75768;SDS011;64379;48.888;8.330;2023-01-13T18:24:13;3.30;;;0.98;;
75768;SDS011;64379;48.888;8.330;2023-01-13T18:26:59;4.88;;;1.05;;
75768;SDS011;64379;48.888;8.330;2023-01-13T18:29:44;5.60;;;1.20;;
75768;SDS011;64379;48.888;8.330;2023-01-13T18:32:10;4.97;;;1.27;;
75768;SDS011;64379;48.888;8.330;2023-01-13T18:34:36;7.53;;;1.30;;
75768;SDS011;64379;48.888;8.330;2023-01-13T18:37:02;7.18;;;1.83;;